Anco, Kentucky
Current Conditions -  °F | °C
As of 9:53 AM on Tuesday 21 Oct 2014 (Local Time) from KJKL Reporting Station
Haze Haze  
Wind Chill: 51°   Ceiling: 300
Heat Index: 51°   Visibility: 5mi
Dew Point: 48°   Wind: 7mph
Humidity: 89%   Direction: 280°W
Pressure: 30"   Gusts: NA
Location:  37.2376°N, 83.0326°W
Report Text: KJKL 211353Z AUTO 28006KT 5SM BR OVC003 11/09 A3000 RMK AO2 SLP156 T01060089
Loading
Personal Weather Stations






























Interactive Weather Map
Tropical Storm Tracking
New forecast layout! Learn more

10-Day Weather Forecast

Advertisements
Track Severe Weather on mobile